Terminal Aerodrome Forecast
Issued by NWS

Home | Current Version | Previous Version | Text Only | Print | Product List | Glossary On
Versions: 1 2 3 4 5 6 7 8 9 10 11 12 13 14 15 16 17
000
FTAK31 PAFA 021905 AAA
TAFAFA
TAF AMD
PAFA 021905Z 0219/0324 VRB05KT P6SM FEW060 BKN100 BKN180
      TEMPO 0219/0220 VRB15G25KT -SHRA BKN025 OVC050
     FM030000 36004KT P6SM -SHRA BKN060
     FM030300 VRB03KT 6SM -RA BR SCT025 BKN035 OVC050=

USA.gov is the U.S. government's official web portal to all federal, state and local government web resources and services.